Time;durP1;ratioP1;P1;durP2;ratioP2;P2;SDS_P1;SDS_P2;PMS_P1;PMS_P2;Temp;Humidity;BMP_temperature;BMP_pressure;BME280_temperature;BME280_humidity;BME280_pressure;Samples;Min_cycle;Max_cycle;Signal;HPM_P1;HPM_P2
2023/04/04 00:02:13;;;;;;;0.88;0.50;;;19.10;1.00;;;;;;5013226;28;20489;-36
2023/04/04 00:04:40;;;;;;;2.30;0.45;;;19.00;1.00;;;;;;5012855;28;20497;-36
2023/04/04 00:07:07;;;;;;;4.32;0.50;;;19.00;1.00;;;;;;5013177;28;20054;-36
2023/04/04 00:09:34;;;;;;;1.88;0.50;;;19.00;1.00;;;;;;5013187;28;20050;-36
2023/04/04 00:12:01;;;;;;;0.70;0.40;;;19.00;1.00;;;;;;5013329;28;20046;-36
2023/04/04 00:14:28;;;;;;;1.08;0.30;;;18.90;1.00;;;;;;5012704;28;20034;-36
2023/04/04 00:16:55;;;;;;;1.85;0.70;;;18.90;1.00;;;;;;5013018;28;20088;-36
2023/04/04 00:19:21;;;;;;;2.10;0.60;;;18.90;1.00;;;;;;5013090;28;20054;-36
2023/04/04 00:21:49;;;;;;;1.30;0.57;;;18.90;1.00;;;;;;5012954;28;20561;-37
2023/04/04 00:24:16;;;;;;;0.98;0.45;;;18.80;1.00;;;;;;5012190;28;20121;-36
2023/04/04 00:26:42;;;;;;;2.20;0.40;;;18.80;1.00;;;;;;5012670;28;20375;-36
2023/04/04 00:29:09;;;;;;;1.15;0.30;;;18.80;1.00;;;;;;5012801;28;20048;-36
2023/04/04 00:31:36;;;;;;;2.05;0.63;;;18.80;1.00;;;;;;5012926;28;20038;-36
2023/04/04 00:34:03;;;;;;;0.80;0.50;;;18.70;1.00;;;;;;4994349;28;20041;-36
2023/04/04 00:36:30;;;;;;;1.00;0.40;;;18.70;1.00;;;;;;5012608;28;20555;-36
2023/04/04 00:38:57;;;;;;;1.02;0.50;;;18.70;1.00;;;;;;4995212;28;20048;-36
2023/04/04 00:41:23;;;;;;;0.88;0.40;;;18.70;1.00;;;;;;4994913;28;20088;-36
2023/04/04 00:43:50;;;;;;;2.00;0.57;;;18.70;1.00;;;;;;4994206;28;20050;-36
2023/04/04 00:46:18;;;;;;;1.65;0.45;;;18.70;1.00;;;;;;5012722;28;20136;-36
2023/04/04 00:48:46;;;;;;;0.90;0.40;;;18.60;1.00;;;;;;5012610;28;20042;-36
2023/04/04 00:51:13;;;;;;;0.90;0.40;;;18.60;1.00;;;;;;5012537;28;20033;-37
2023/04/04 00:53:45;;;;;;;1.77;1.17;;;18.60;1.00;;;;;;4993943;28;20054;-36
2023/04/04 00:56:12;;;;;;;0.70;0.30;;;18.50;1.00;;;;;;5012474;28;20098;-36
2023/04/04 00:58:42;;;;;;;1.50;0.30;;;18.50;1.00;;;;;;4994850;28;20048;-35
2023/04/04 01:01:12;;;;;;;0.95;0.45;;;18.50;1.00;;;;;;4994453;28;20042;-36
2023/04/04 01:03:39;;;;;;;0.68;0.40;;;18.50;1.00;;;;;;5011656;28;20513;-36
2023/04/04 01:06:07;;;;;;;1.70;0.50;;;18.50;1.00;;;;;;4994522;28;20042;-36
2023/04/04 01:08:38;;;;;;;1.40;0.45;;;18.40;1.00;;;;;;5012225;28;20050;-36
2023/04/04 01:11:07;;;;;;;1.45;0.47;;;18.40;1.00;;;;;;5012379;28;20042;-36
2023/04/04 01:13:34;;;;;;;1.27;0.47;;;18.40;1.00;;;;;;5011419;28;20390;-36
2023/04/04 01:16:01;;;;;;;1.33;0.43;;;18.40;1.00;;;;;;4994555;28;20080;-36
2023/04/04 01:18:29;;;;;;;2.22;0.50;;;18.30;1.00;;;;;;4994779;28;20061;-36
2023/04/04 01:21:06;;;;;;;1.13;0.40;;;18.30;1.00;;;;;;4994554;28;20104;-36
2023/04/04 01:23:57;;;;;;;1.42;0.20;;;18.30;1.00;;;;;;5011496;28;20046;-38
2023/04/04 01:26:27;;;;;;;;;;;18.30;1.00;;;;;;4994945;28;20045;-38
2023/04/04 01:28:58;;;;;;;0.65;0.28;;;18.20;1.00;;;;;;4994591;28;19921;-38
2023/04/04 01:31:49;;;;;;;1.67;0.47;;;18.20;1.00;;;;;;4994381;28;20116;-38
2023/04/04 01:34:41;;;;;;;0.88;0.55;;;18.20;1.00;;;;;;5011216;28;20113;-38
2023/04/04 01:37:33;;;;;;;1.00;0.40;;;18.20;1.00;;;;;;4994396;28;20145;-38
2023/04/04 01:40:15;;;;;;;1.63;0.40;;;18.20;1.00;;;;;;4994463;28;20104;-37
2023/04/04 01:42:45;;;;;;;2.25;0.50;;;18.10;1.00;;;;;;4993575;28;20042;-38
2023/04/04 01:45:12;;;;;;;1.42;1.02;;;18.10;1.00;;;;;;4994340;28;20059;-38
2023/04/04 01:47:40;;;;;;;0.73;0.20;;;18.10;1.00;;;;;;4994324;28;20065;-37
2023/04/04 01:50:12;;;;;;;1.25;0.40;;;18.10;1.00;;;;;;4995255;28;20108;-38
2023/04/04 01:52:39;;;;;;;1.92;0.65;;;18.10;1.00;;;;;;5014894;28;20041;-38
2023/04/04 01:55:07;;;;;;;0.85;0.40;;;18.00;1.00;;;;;;4998056;28;20096;-38
2023/04/04 01:57:34;;;;;;;1.58;0.60;;;18.00;1.00;;;;;;4998026;28;20501;-38
2023/04/04 02:00:01;;;;;;;1.10;0.28;;;18.00;1.00;;;;;;4998109;28;20038;-37
2023/04/04 02:02:28;;;;;;;1.73;0.40;;;18.00;1.00;;;;;;4997706;28;20041;-37
2023/04/04 02:04:55;;;;;;;0.82;0.30;;;18.00;1.00;;;;;;4997364;28;20045;-38
2023/04/04 02:07:23;;;;;;;1.45;0.70;;;18.00;1.00;;;;;;5015568;28;20037;-37
2023/04/04 02:09:50;;;;;;;1.48;0.28;;;18.00;1.00;;;;;;4997984;28;20042;-38
2023/04/04 02:12:17;;;;;;;1.10;0.50;;;17.90;1.00;;;;;;4997616;28;20096;-37
2023/04/04 02:14:44;;;;;;;1.27;0.45;;;17.90;1.00;;;;;;5014886;28;20449;-37
2023/04/04 02:17:11;;;;;;;1.40;0.50;;;17.90;1.00;;;;;;5014997;28;20132;-37
2023/04/04 02:19:38;;;;;;;2.17;0.50;;;17.80;1.00;;;;;;4997710;28;20046;-38
2023/04/04 02:22:04;;;;;;;0.90;0.40;;;17.90;1.00;;;;;;5015399;28;20409;-37
2023/04/04 02:24:31;;;;;;;1.88;0.38;;;17.90;1.00;;;;;;4996749;28;20469;-38
2023/04/04 02:26:58;;;;;;;2.65;0.65;;;17.80;1.00;;;;;;5015292;28;20045;-37
2023/04/04 02:29:25;;;;;;;1.38;0.43;;;17.80;1.00;;;;;;5015337;28;20038;-37
2023/04/04 02:31:52;;;;;;;2.33;0.70;;;17.80;1.00;;;;;;4997359;28;20153;-38
2023/04/04 02:34:20;;;;;;;1.65;0.70;;;17.70;1.00;;;;;;4996602;28;20042;-37
2023/04/04 02:36:50;;;;;;;1.70;0.50;;;17.70;1.00;;;;;;4997281;28;20049;-37
2023/04/04 02:39:18;;;;;;;1.00;0.40;;;17.70;1.00;;;;;;4997396;28;20053;-37
2023/04/04 02:41:47;;;;;;;1.75;1.05;;;17.70;1.00;;;;;;4997290;28;20589;-38
2023/04/04 02:44:14;;;;;;;1.45;0.45;;;17.70;1.00;;;;;;5013837;28;20041;-38
2023/04/04 02:46:42;;;;;;;3.42;0.80;;;17.70;1.00;;;;;;4997163;28;20046;-38
2023/04/04 02:49:14;;;;;;;1.52;0.60;;;17.70;1.00;;;;;;4997087;28;20398;-38
2023/04/04 02:51:45;;;;;;;2.05;0.70;;;17.60;1.00;;;;;;4997238;28;20493;-38
2023/04/04 02:54:12;;;;;;;1.98;0.47;;;17.60;1.00;;;;;;4996141;28;20448;-38
2023/04/04 02:56:43;;;;;;;1.23;0.70;;;17.60;1.00;;;;;;4996787;28;20071;-37
2023/04/04 02:59:09;;;;;;;2.08;0.75;;;17.60;1.00;;;;;;5014531;28;20038;-38
2023/04/04 03:01:36;;;;;;;2.03;0.63;;;17.60;1.00;;;;;;5013257;28;20069;-38
2023/04/04 03:04:03;;;;;;;2.17;0.65;;;17.50;1.00;;;;;;4996001;28;20144;-38
2023/04/04 03:06:32;;;;;;;1.15;0.45;;;17.50;1.00;;;;;;4996660;28;20058;-38
2023/04/04 03:08:59;;;;;;;2.05;0.47;;;17.50;1.00;;;;;;5014417;28;20064;-38
2023/04/04 03:11:27;;;;;;;1.88;0.60;;;17.50;1.00;;;;;;4996520;28;20050;-37
2023/04/04 03:13:54;;;;;;;1.40;0.52;;;17.50;1.00;;;;;;4995858;28;20104;-37
2023/04/04 03:16:30;;;;;;;1.88;0.52;;;17.40;1.00;;;;;;4996647;28;20084;-38
2023/04/04 03:18:57;;;;;;;2.65;0.50;;;17.40;1.00;;;;;;4996575;28;20069;-37
2023/04/04 03:21:24;;;;;;;1.45;0.68;;;17.40;1.00;;;;;;4996715;28;20042;-37
2023/04/04 03:23:55;;;;;;;1.17;0.52;;;17.40;1.00;;;;;;4995625;28;20064;-37
2023/04/04 03:26:22;;;;;;;1.92;0.90;;;17.40;1.00;;;;;;5013812;28;20052;-37
2023/04/04 03:28:48;;;;;;;1.10;0.47;;;17.40;1.00;;;;;;4996375;28;20327;-37
2023/04/04 03:31:19;;;;;;;2.75;0.60;;;17.30;1.00;;;;;;4996428;28;20045;-37
2023/04/04 03:33:46;;;;;;;3.38;0.50;;;17.30;1.00;;;;;;4979333;28;20076;-37
2023/04/04 03:36:13;;;;;;;1.90;0.82;;;17.30;1.00;;;;;;4996006;28;20049;-37
2023/04/04 03:38:40;;;;;;;1.85;0.63;;;17.30;1.00;;;;;;4996157;28;20046;-38
2023/04/04 03:41:09;;;;;;;1.42;0.55;;;17.30;1.00;;;;;;4996221;28;20042;-37
2023/04/04 03:43:36;;;;;;;4.07;0.70;;;17.30;1.00;;;;;;4995354;28;20046;-38
2023/04/04 03:46:04;;;;;;;1.75;0.77;;;17.30;1.00;;;;;;5013492;28;20053;-37
2023/04/04 03:48:32;;;;;;;2.00;0.70;;;17.30;1.00;;;;;;4996117;28;20049;-37
2023/04/04 03:51:02;;;;;;;1.40;0.63;;;17.30;1.00;;;;;;4995924;28;20076;-37
2023/04/04 03:53:29;;;;;;;4.10;0.82;;;17.30;1.00;;;;;;4995153;28;20046;-37
2023/04/04 03:55:56;;;;;;;1.45;0.63;;;17.20;1.00;;;;;;5013338;28;20093;-38
2023/04/04 03:58:23;;;;;;;1.20;0.57;;;17.20;1.00;;;;;;5013377;28;20053;-37
2023/04/04 04:00:50;;;;;;;2.25;0.88;;;17.20;1.00;;;;;;4995730;28;20061;-37
2023/04/04 04:03:17;;;;;;;2.20;0.98;;;17.20;1.00;;;;;;4994769;28;20565;-37
2023/04/04 04:05:45;;;;;;;2.88;0.93;;;17.20;1.00;;;;;;4991338;23;20092;-34
2023/04/04 04:08:12;;;;;;;3.72;0.50;;;17.10;1.00;;;;;;5005756;28;20053;-34
2023/04/04 04:10:39;;;;;;;1.08;0.60;;;17.10;1.00;;;;;;5011692;28;20136;-34
2023/04/04 04:13:06;;;;;;;2.45;0.65;;;17.10;1.00;;;;;;5011855;28;20047;-34
2023/04/04 04:15:33;;;;;;;4.20;0.82;;;17.10;1.00;;;;;;4995319;28;20042;-35
2023/04/04 04:18:05;;;;;;;5.18;0.63;;;17.10;1.00;;;;;;4995538;28;20490;-34
2023/04/04 04:20:31;;;;;;;2.65;1.10;;;17.10;1.00;;;;;;4995490;28;20044;-34
2023/04/04 04:22:58;;;;;;;5.30;0.70;;;17.10;1.00;;;;;;5012254;28;20045;-34
2023/04/04 04:25:25;;;;;;;2.20;0.80;;;17.10;1.00;;;;;;4995244;28;20050;-34
2023/04/04 04:27:59;;;;;;;2.97;1.13;;;17.10;1.00;;;;;;4995410;28;20477;-34
2023/04/04 04:30:26;;;;;;;11.50;1.23;;;17.00;1.00;;;;;;5011578;28;20073;-34
2023/04/04 04:32:53;;;;;;;2.58;1.17;;;17.00;1.00;;;;;;5012252;28;20042;-34
2023/04/04 04:35:25;;;;;;;4.78;0.52;;;17.00;1.00;;;;;;4995032;28;20041;-34
2023/04/04 04:37:54;;;;;;;4.78;0.90;;;16.90;1.00;;;;;;5011663;28;20048;-34
2023/04/04 04:40:21;;;;;;;2.92;0.98;;;16.90;1.00;;;;;;4995124;28;20038;-34
2023/04/04 04:42:57;;;;;;;1.35;0.55;;;16.90;1.00;;;;;;4979525;28;20507;-34
2023/04/04 04:45:25;;;;;;;7.60;0.90;;;16.90;1.00;;;;;;4994955;28;20046;-34
2023/04/04 04:48:03;;;;;;;5.85;0.70;;;16.90;1.00;;;;;;4995049;28;20060;-34
2023/04/04 04:50:31;;;;;;;2.67;0.73;;;16.90;1.00;;;;;;5011267;28;20509;-34
2023/04/04 04:52:58;;;;;;;2.00;0.80;;;16.80;1.00;;;;;;4994218;28;20077;-34
2023/04/04 04:55:25;;;;;;;5.97;0.80;;;16.80;1.00;;;;;;4994620;28;20045;-34
2023/04/04 04:58:03;;;;;;;1.58;0.60;;;16.80;1.00;;;;;;4994935;28;20052;-34
2023/04/04 05:00:30;;;;;;;3.13;0.85;;;16.80;1.00;;;;;;4994950;28;20505;-34
2023/04/04 05:02:59;;;;;;;1.63;0.57;;;16.70;1.00;;;;;;5010427;28;20054;-34
2023/04/04 05:05:35;;;;;;;1.73;0.82;;;16.70;1.00;;;;;;5010683;28;20050;-34
2023/04/04 05:08:09;;;;;;;3.05;1.42;;;16.70;1.00;;;;;;4985221;28;20050;-34
2023/04/04 05:10:41;;;;;;;2.60;0.82;;;16.70;1.00;;;;;;4983125;28;20502;-34
2023/04/04 05:13:09;;;;;;;6.78;1.25;;;16.70;1.00;;;;;;4992716;28;20501;-34
2023/04/04 05:15:41;;;;;;;2.65;1.05;;;16.70;1.00;;;;;;4976071;28;20476;-34
2023/04/04 05:18:08;;;;;;;1.58;0.88;;;16.60;1.00;;;;;;5012151;28;20509;-34
2023/04/04 05:20:36;;;;;;;2.42;0.85;;;16.60;1.00;;;;;;4994310;28;20053;-34
2023/04/04 05:23:04;;;;;;;2.22;0.90;;;16.60;1.00;;;;;;5011689;28;20045;-34
2023/04/04 05:25:36;;;;;;;2.72;0.93;;;16.70;1.00;;;;;;5012605;28;20152;-34
2023/04/04 05:28:03;;;;;;;2.85;1.00;;;16.70;1.00;;;;;;4998967;28;20077;-34
2023/04/04 05:30:31;;;;;;;1.92;0.57;;;16.80;1.00;;;;;;4998643;28;20054;-35
2023/04/04 05:33:18;;;;;;;2.55;0.77;;;16.80;1.00;;;;;;4997806;28;20616;-35
2023/04/04 05:35:59;;;;;;;2.45;0.85;;;16.90;1.00;;;;;;4984840;28;20081;-35
2023/04/04 05:38:29;;;;;;;1.83;1.00;;;17.00;1.00;;;;;;4995136;28;20042;-35
2023/04/04 05:40:56;;;;;;;2.45;0.65;;;17.10;1.00;;;;;;4996314;28;20038;-35
2023/04/04 05:43:24;;;;;;;3.00;0.90;;;17.10;1.00;;;;;;4994217;28;20049;-35
2023/04/04 05:45:59;;;;;;;2.00;0.77;;;17.20;1.00;;;;;;4978703;28;20046;-35
2023/04/04 05:48:28;;;;;;;2.30;0.95;;;17.30;1.00;;;;;;4978619;28;20046;-35
2023/04/04 05:50:55;;;;;;;2.65;0.57;;;17.30;1.00;;;;;;4978686;28;20077;-35
2023/04/04 05:53:33;;;;;;;3.65;0.80;;;17.40;1.00;;;;;;4994255;28;20054;-35
2023/04/04 05:56:02;;;;;;;2.40;1.23;;;17.40;1.00;;;;;;4978752;28;20502;-35
2023/04/04 05:58:31;;;;;;;1.88;0.70;;;17.50;1.00;;;;;;4978433;28;20072;-35
2023/04/04 06:01:00;;;;;;;3.38;0.60;;;17.50;1.00;;;;;;4994364;28;20077;-35
2023/04/04 06:03:27;;;;;;;1.98;0.73;;;17.50;1.00;;;;;;4977880;28;20056;-35
2023/04/04 06:05:56;;;;;;;2.00;0.80;;;17.50;1.00;;;;;;4994305;28;20051;-35
2023/04/04 06:08:23;;;;;;;3.05;1.10;;;17.60;1.00;;;;;;4996086;28;20076;-35
2023/04/04 06:10:50;;;;;;;6.75;1.23;;;17.60;1.00;;;;;;4995859;28;20519;-35
2023/04/04 06:13:16;;;;;;;2.20;0.70;;;17.60;1.00;;;;;;4961702;28;20065;-35
2023/04/04 06:15:49;;;;;;;2.38;1.02;;;17.70;1.00;;;;;;4994276;28;20513;-35
2023/04/04 06:18:20;;;;;;;2.10;0.70;;;17.70;1.00;;;;;;4995789;28;20470;-35
2023/04/04 06:20:47;;;;;;;1.50;0.85;;;17.70;1.00;;;;;;4995493;28;20125;-35
2023/04/04 06:23:15;;;;;;;1.15;0.85;;;17.70;1.00;;;;;;4977384;28;20073;-35
2023/04/04 06:25:44;;;;;;;1.67;0.65;;;17.70;1.00;;;;;;4994060;28;20061;-35
2023/04/04 06:28:14;;;;;;;1.50;0.75;;;17.70;1.00;;;;;;4994249;28;20050;-35
2023/04/04 06:30:43;;;;;;;1.63;0.88;;;17.70;1.00;;;;;;4994175;28;20054;-35
2023/04/04 06:33:11;;;;;;;2.63;1.48;;;17.70;1.00;;;;;;4993458;28;20054;-35
2023/04/04 06:35:43;;;;;;;2.70;0.70;;;17.70;1.00;;;;;;4993831;28;20043;-35
2023/04/04 06:38:11;;;;;;;3.05;1.10;;;17.70;1.00;;;;;;4977903;28;20074;-35
2023/04/04 06:40:38;;;;;;;1.70;0.90;;;17.70;1.00;;;;;;4993955;28;20502;-35
2023/04/04 06:43:05;;;;;;;2.17;1.02;;;17.70;1.00;;;;;;4976911;28;20417;-33
2023/04/04 06:45:37;;;;;;;3.33;0.73;;;17.70;1.00;;;;;;4993451;28;20046;-34
2023/04/04 06:48:04;;;;;;;2.10;1.13;;;17.60;1.00;;;;;;4995069;28;20050;-34
2023/04/04 06:50:32;;;;;;;2.15;0.80;;;17.60;1.00;;;;;;4993766;28;20053;-33
2023/04/04 06:53:01;;;;;;;3.70;1.30;;;17.60;1.00;;;;;;4977080;28;20502;-34
2023/04/04 06:55:28;;;;;;;1.40;0.80;;;17.60;1.00;;;;;;4977528;28;20068;-34
2023/04/04 06:57:55;;;;;;;3.60;1.33;;;17.60;1.00;;;;;;4995000;28;20041;-34
2023/04/04 07:00:22;;;;;;;2.67;0.85;;;17.60;1.00;;;;;;4994549;28;20502;-34
2023/04/04 07:02:49;;;;;;;2.20;0.80;;;17.60;1.00;;;;;;4992915;28;20062;-34
2023/04/04 07:05:16;;;;;;;1.30;0.73;;;17.50;1.00;;;;;;4994738;28;20144;-34
2023/04/04 07:07:45;;;;;;;2.22;1.00;;;17.50;1.00;;;;;;4995001;28;20414;-34
2023/04/04 07:10:11;;;;;;;2.28;0.80;;;17.50;1.00;;;;;;4994674;28;20069;-34
2023/04/04 07:12:38;;;;;;;1.92;0.95;;;17.50;1.00;;;;;;4994632;28;20061;-33
2023/04/04 07:15:06;;;;;;;3.33;1.10;;;17.50;1.00;;;;;;4994500;28;20065;-33
2023/04/04 07:17:37;;;;;;;2.00;0.88;;;17.50;1.00;;;;;;4994815;28;20042;-33
2023/04/04 07:20:05;;;;;;;1.25;0.80;;;17.50;1.00;;;;;;4994516;28;20558;-34
2023/04/04 07:22:35;;;;;;;3.13;1.02;;;17.40;1.00;;;;;;4994200;28;20042;-33
2023/04/04 07:25:02;;;;;;;1.20;0.70;;;17.40;1.00;;;;;;4976752;28;20097;-33
2023/04/04 07:27:29;;;;;;;2.80;1.15;;;17.40;1.00;;;;;;4994248;28;20096;-33
2023/04/04 07:29:56;;;;;;;3.88;1.20;;;17.40;1.00;;;;;;4994300;28;20065;-33
2023/04/04 07:32:23;;;;;;;2.35;1.10;;;17.40;1.00;;;;;;4993960;28;20046;-34
2023/04/04 07:34:50;;;;;;;1.92;0.85;;;17.40;1.00;;;;;;4993789;28;20061;-34
2023/04/04 07:37:17;;;;;;;2.35;0.93;;;17.40;1.00;;;;;;4994175;28;20121;-34
2023/04/04 07:39:44;;;;;;;1.80;0.57;;;17.40;1.00;;;;;;4993989;28;20045;-34
2023/04/04 07:42:11;;;;;;;2.17;0.85;;;17.40;1.00;;;;;;4993774;28;20155;-34
2023/04/04 07:44:37;;;;;;;3.70;1.30;;;17.40;1.00;;;;;;4993603;28;20498;-34
2023/04/04 07:47:04;;;;;;;2.42;0.82;;;17.40;1.00;;;;;;4993697;28;20065;-34
2023/04/04 07:49:36;;;;;;;0.80;0.57;;;17.40;1.00;;;;;;4993714;28;20050;-34
2023/04/04 07:52:03;;;;;;;1.90;0.90;;;17.40;1.00;;;;;;4993874;28;20129;-34
2023/04/04 07:54:30;;;;;;;3.70;0.70;;;17.40;1.00;;;;;;4993562;28;20157;-34
2023/04/04 07:56:57;;;;;;;1.85;0.77;;;17.40;1.00;;;;;;4976451;28;20081;-34
2023/04/04 07:59:24;;;;;;;1.92;0.80;;;17.30;1.00;;;;;;4993726;28;20399;-34
2023/04/04 08:01:51;;;;;;;3.53;1.02;;;17.30;1.00;;;;;;4993759;28;20039;-34
2023/04/04 08:04:18;;;;;;;2.55;0.90;;;17.30;1.00;;;;;;4993101;28;20070;-34
2023/04/04 08:06:45;;;;;;;1.27;0.93;;;17.30;1.00;;;;;;4993557;28;20038;-34
2023/04/04 08:09:12;;;;;;;2.05;0.43;;;17.30;1.00;;;;;;4976271;28;20074;-34
2023/04/04 08:11:38;;;;;;;1.40;0.93;;;17.30;1.00;;;;;;4993506;28;20042;-34
2023/04/04 08:14:05;;;;;;;2.58;0.75;;;17.30;1.00;;;;;;4992939;28;20122;-34
2023/04/04 08:16:32;;;;;;;3.45;0.80;;;17.30;1.00;;;;;;4993481;28;20137;-34
2023/04/04 08:18:59;;;;;;;2.15;0.70;;;17.30;1.00;;;;;;4993511;28;20174;-34
2023/04/04 08:21:26;;;;;;;2.38;0.77;;;17.30;1.00;;;;;;4993294;28;20422;-34
2023/04/04 08:23:53;;;;;;;2.22;0.80;;;17.30;1.00;;;;;;4992530;28;20050;-34
2023/04/04 08:26:20;;;;;;;1.75;0.70;;;17.20;1.00;;;;;;4993215;28;20065;-34
2023/04/04 08:28:47;;;;;;;1.33;0.50;;;17.20;1.00;;;;;;4993261;28;20577;-34
2023/04/04 08:31:15;;;;;;;1.63;0.60;;;17.20;1.00;;;;;;4993139;28;20046;-33
2023/04/04 08:33:43;;;;;;;1.70;0.75;;;17.20;1.00;;;;;;4992501;28;20053;-34
2023/04/04 08:36:14;;;;;;;1.60;0.70;;;17.20;1.00;;;;;;4992822;28;20095;-34
2023/04/04 08:38:41;;;;;;;5.22;0.65;;;17.20;1.00;;;;;;4993128;28;20307;-34
2023/04/04 08:41:09;;;;;;;2.92;0.60;;;17.20;1.00;;;;;;4992930;28;20056;-34
2023/04/04 08:43:39;;;;;;;1.63;0.88;;;17.20;1.00;;;;;;4992313;28;20082;-34
2023/04/04 08:46:08;;;;;;;1.15;0.60;;;17.20;1.00;;;;;;4993051;28;20046;-34
2023/04/04 08:48:40;;;;;;;1.80;0.55;;;17.20;1.00;;;;;;4992864;28;20125;-34
2023/04/04 08:51:09;;;;;;;1.15;0.50;;;17.20;1.00;;;;;;4993150;28;20552;-34
2023/04/04 08:53:37;;;;;;;1.83;0.57;;;17.20;1.00;;;;;;4992129;28;20061;-34
2023/04/04 08:56:05;;;;;;;2.20;0.88;;;17.20;1.00;;;;;;4992796;28;20097;-34
2023/04/04 08:58:32;;;;;;;3.55;1.35;;;17.20;1.00;;;;;;4992726;28;20042;-34
2023/04/04 09:00:59;;;;;;;2.60;0.65;;;17.20;1.00;;;;;;4992706;28;20052;-34
2023/04/04 09:03:28;;;;;;;2.08;0.90;;;17.20;1.00;;;;;;4992015;28;20097;-34
2023/04/04 09:05:55;;;;;;;1.35;0.55;;;17.30;1.00;;;;;;4987109;28;20085;-34
2023/04/04 09:08:25;;;;;;;1.50;0.68;;;17.30;1.00;;;;;;4958640;28;20054;-34
2023/04/04 09:10:52;;;;;;;2.65;0.50;;;17.30;1.00;;;;;;4973294;28;20525;-34
2023/04/04 09:13:20;;;;;;;1.27;0.57;;;17.30;1.00;;;;;;4972515;28;20042;-34
2023/04/04 09:15:51;;;;;;;3.10;0.93;;;17.30;1.00;;;;;;4972787;28;20064;-34
2023/04/04 09:18:18;;;;;;;0.88;0.40;;;17.30;1.00;;;;;;4973220;28;20066;-34
2023/04/04 09:20:46;;;;;;;1.20;0.80;;;17.30;1.00;;;;;;4972904;28;20046;-35
2023/04/04 09:23:16;;;;;;;1.17;0.60;;;17.30;1.00;;;;;;4972282;28;20039;-34
2023/04/04 09:25:51;;;;;;;1.80;1.30;;;17.30;1.00;;;;;;4972968;28;20054;-35
2023/04/04 09:28:22;;;;;;;2.03;0.50;;;17.30;1.00;;;;;;4972997;28;20051;-35
2023/04/04 09:30:50;;;;;;;1.40;0.50;;;17.30;1.00;;;;;;4973160;28;20043;-35
2023/04/04 09:33:18;;;;;;;3.38;0.60;;;17.30;1.00;;;;;;4972286;28;20102;-35
2023/04/04 09:35:51;;;;;;;1.20;0.70;;;17.40;1.00;;;;;;4972763;28;20077;-35
2023/04/04 09:38:21;;;;;;;1.55;0.80;;;17.40;1.00;;;;;;4972963;28;20061;-35
2023/04/04 09:40:49;;;;;;;1.70;0.45;;;17.40;1.00;;;;;;4972892;28;20074;-35
2023/04/04 09:43:16;;;;;;;2.35;0.75;;;17.40;1.00;;;;;;4972223;28;20402;-34
2023/04/04 09:45:44;;;;;;;3.60;0.80;;;17.40;1.00;;;;;;4972932;28;20479;-34
2023/04/04 09:48:12;;;;;;;1.40;0.60;;;17.40;1.00;;;;;;4972935;28;20050;-34
2023/04/04 09:50:46;;;;;;;1.33;0.82;;;17.40;1.00;;;;;;4972751;28;20038;-34
2023/04/04 09:53:17;;;;;;;1.85;0.90;;;17.40;1.00;;;;;;4972222;28;20043;-34
2023/04/04 09:55:50;;;;;;;1.30;0.77;;;17.40;1.00;;;;;;4972634;28;20046;-34
2023/04/04 09:58:28;;;;;;;1.55;0.80;;;17.40;1.00;;;;;;4973062;28;20043;-34
2023/04/04 10:00:59;;;;;;;2.85;0.57;;;17.40;1.00;;;;;;4972815;28;20102;-34
2023/04/04 10:03:27;;;;;;;1.70;0.80;;;17.40;1.00;;;;;;4972087;28;20085;-34
2023/04/04 10:06:03;;;;;;;0.98;0.50;;;17.40;1.00;;;;;;4988332;22;20117;-37
2023/04/04 10:08:34;;;;;;;1.70;0.40;;;17.40;1.00;;;;;;5001105;28;20042;-37
2023/04/04 10:11:05;;;;;;;1.33;0.40;;;17.40;1.00;;;;;;4992831;28;20482;-37
2023/04/04 10:13:39;;;;;;;2.72;0.80;;;17.40;1.00;;;;;;4994933;28;20121;-37
2023/04/04 10:16:07;;;;;;;3.25;0.88;;;17.50;1.00;;;;;;4991142;28;20122;-37
2023/04/04 10:18:35;;;;;;;1.08;0.40;;;17.50;1.00;;;;;;4976269;28;20042;-37
2023/04/04 10:21:07;;;;;;;0.95;0.60;;;17.50;1.00;;;;;;4976173;28;20043;-37
2023/04/04 10:23:39;;;;;;;2.83;0.40;;;17.50;1.00;;;;;;4975220;28;20034;-37
2023/04/04 10:26:06;;;;;;;3.17;0.88;;;17.50;1.00;;;;;;4975819;28;20422;-37
2023/04/04 10:28:33;;;;;;;2.70;1.38;;;17.50;1.00;;;;;;4975925;28;20053;-37
2023/04/04 10:31:08;;;;;;;4.47;2.00;;;17.50;1.00;;;;;;4975810;28;20042;-37
2023/04/04 10:33:54;;;;;;;4.50;2.40;;;17.50;1.00;;;;;;4975094;28;20057;-37
2023/04/04 10:36:23;;;;;;;5.00;1.80;;;17.50;1.00;;;;;;4975693;28;20038;-37
2023/04/04 10:39:05;;;;;;;5.70;2.45;;;17.50;1.00;;;;;;4975702;28;20042;-37
2023/04/04 10:41:34;;;;;;;4.05;2.35;;;17.40;1.00;;;;;;4975685;28;20051;-37
2023/04/04 10:44:17;;;;;;;2.92;2.00;;;17.40;1.00;;;;;;4975032;28;20047;-37
2023/04/04 10:46:47;;;;;;;4.07;1.73;;;17.40;1.00;;;;;;4975750;28;20039;-37
2023/04/04 10:49:14;;;;;;;4.18;1.60;;;17.40;1.00;;;;;;4975733;28;20418;-37
2023/04/04 10:51:42;;;;;;;3.75;1.80;;;17.40;1.00;;;;;;4975388;28;20430;-37
2023/04/04 10:54:23;;;;;;;3.00;1.27;;;17.40;1.00;;;;;;4957516;28;20047;-37
2023/04/04 10:56:51;;;;;;;5.65;1.40;;;17.40;1.00;;;;;;4975679;28;20483;-37
2023/04/04 10:59:17;;;;;;;1.92;1.02;;;17.40;1.00;;;;;;4975561;28;20047;-37
2023/04/04 11:01:59;;;;;;;5.35;1.73;;;17.40;1.00;;;;;;4975096;28;20122;-37
2023/04/04 11:04:38;;;;;;;3.58;1.40;;;17.40;1.00;;;;;;4974787;28;20043;-37
2023/04/04 11:07:07;;;;;;;2.22;1.20;;;17.40;1.00;;;;;;4975144;28;20043;-37
2023/04/04 11:09:55;;;;;;;4.88;1.60;;;17.30;1.00;;;;;;4975336;28;20050;-37
2023/04/04 11:12:30;;;;;;;6.55;3.08;;;17.30;1.00;;;;;;4974911;28;20477;-37
2023/04/04 11:15:10;;;;;;;5.30;2.40;;;17.30;1.00;;;;;;4974550;28;20054;-37
2023/04/04 11:17:49;;;;;;;7.55;3.95;;;17.30;1.00;;;;;;4975244;28;20043;-37
2023/04/04 11:20:17;;;;;;;4.78;2.58;;;17.30;1.00;;;;;;4975173;28;20042;-38
2023/04/04 11:22:44;;;;;;;6.07;2.42;;;17.30;1.00;;;;;;4973317;28;20425;-37
2023/04/04 11:25:23;;;;;;;4.47;1.83;;;17.20;1.00;;;;;;4974817;28;20074;-37
2023/04/04 11:27:53;;;;;;;9.07;3.00;;;17.20;1.00;;;;;;4975219;28;20396;-38
2023/04/04 11:30:20;;;;;;;4.78;1.95;;;17.20;1.00;;;;;;4975073;28;20045;-37
2023/04/04 11:32:48;;;;;;;4.05;1.63;;;17.20;1.00;;;;;;4974204;28;20042;-37
2023/04/04 11:35:29;;;;;;;3.85;1.80;;;17.20;1.00;;;;;;4974538;28;20380;-37
2023/04/04 11:37:56;;;;;;;2.25;1.13;;;17.20;1.00;;;;;;4974765;28;20043;-37
2023/04/04 11:40:38;;;;;;;3.70;1.33;;;17.20;1.00;;;;;;4974773;28;20134;-37
2023/04/04 11:43:10;;;;;;;4.25;1.70;;;17.20;1.00;;;;;;4973783;28;20074;-37
2023/04/04 11:45:42;;;;;;;5.47;0.98;;;17.20;1.00;;;;;;4974827;28;20070;-38
2023/04/04 11:48:09;;;;;;;2.60;1.13;;;17.20;1.00;;;;;;4974796;28;20043;-37
2023/04/04 11:50:40;;;;;;;1.33;1.10;;;17.20;1.00;;;;;;4974450;28;20066;-37
2023/04/04 11:53:09;;;;;;;2.33;0.68;;;17.10;1.00;;;;;;4973564;28;20391;-37
2023/04/04 11:55:46;;;;;;;3.25;1.00;;;17.10;1.00;;;;;;4974224;28;20482;-38
2023/04/04 11:58:15;;;;;;;3.40;0.70;;;17.10;1.00;;;;;;4974431;28;20450;-38
2023/04/04 12:00:43;;;;;;;1.65;0.80;;;17.10;1.00;;;;;;4974302;28;20383;-37
2023/04/04 12:03:11;;;;;;;4.20;1.50;;;17.10;1.00;;;;;;4973599;28;20038;-38
2023/04/04 12:05:40;;;;;;;2.50;0.68;;;17.10;1.00;;;;;;4974159;28;20047;-38
2023/04/04 12:08:10;;;;;;;2.30;1.27;;;17.10;1.00;;;;;;4973978;28;20086;-37
2023/04/04 12:10:39;;;;;;;2.70;1.20;;;17.10;1.00;;;;;;4974174;28;20056;-37
2023/04/04 12:13:07;;;;;;;2.47;0.57;;;17.10;1.00;;;;;;4973424;28;20049;-37
2023/04/04 12:15:35;;;;;;;2.70;0.80;;;17.10;1.00;;;;;;4973782;28;20047;-37
2023/04/04 12:18:06;;;;;;;2.50;0.80;;;17.10;1.00;;;;;;4974244;28;20047;-37
2023/04/04 12:20:37;;;;;;;2.67;0.68;;;17.10;1.00;;;;;;4973973;28;20039;-37
2023/04/04 12:23:04;;;;;;;3.22;1.25;;;17.10;1.00;;;;;;4973315;28;20046;-37
2023/04/04 12:25:32;;;;;;;1.80;1.10;;;17.10;1.00;;;;;;4973657;28;20054;-37
2023/04/04 12:28:03;;;;;;;2.80;0.70;;;17.10;1.00;;;;;;4974007;28;20466;-37
2023/04/04 12:30:31;;;;;;;1.35;0.80;;;17.10;1.00;;;;;;4973858;28;20046;-37
2023/04/04 12:32:58;;;;;;;1.45;0.50;;;17.10;1.00;;;;;;4973079;28;20054;-37
2023/04/04 12:35:24;;;;;;;2.78;0.85;;;17.00;1.00;;;;;;4973881;28;20043;-37
2023/04/04 12:38:09;;;;;;;4.72;0.70;;;17.00;1.00;;;;;;4973548;28;20043;-37
2023/04/04 12:40:38;;;;;;;2.08;1.10;;;17.00;1.00;;;;;;4973561;28;20042;-37
2023/04/04 12:43:14;;;;;;;0.93;0.52;;;17.00;1.00;;;;;;4973071;28;20296;-37
2023/04/04 12:45:42;;;;;;;2.28;0.50;;;17.00;1.00;;;;;;4973490;28;20043;-37
2023/04/04 12:48:12;;;;;;;1.90;0.75;;;17.00;1.00;;;;;;4973484;28;20081;-38
2023/04/04 12:50:59;;;;;;;3.22;0.60;;;17.00;1.00;;;;;;4973432;28;20050;-37
2023/04/04 12:53:28;;;;;;;2.40;0.60;;;17.00;1.00;;;;;;4972799;28;20054;-37
2023/04/04 12:56:01;;;;;;;1.15;0.77;;;17.00;1.00;;;;;;4973277;28;20109;-37
2023/04/04 12:58:28;;;;;;;2.72;1.20;;;17.00;1.00;;;;;;4973467;28;20086;-37
2023/04/04 13:00:58;;;;;;;1.63;0.75;;;17.00;1.00;;;;;;4973062;28;20047;-37
2023/04/04 13:03:27;;;;;;;1.48;0.50;;;17.00;1.00;;;;;;4972065;28;20046;-37
2023/04/04 13:05:54;;;;;;;2.92;0.80;;;17.00;1.00;;;;;;4972944;28;20422;-37
2023/04/04 13:08:21;;;;;;;1.35;0.50;;;17.00;1.00;;;;;;4973302;28;20050;-37
2023/04/04 13:11:05;;;;;;;1.25;0.50;;;17.00;1.00;;;;;;4973229;28;20435;-37